OAS8417 SKCL-SKBO
Flight info
| Callsign | OAS8417 |
|---|---|
| Flight time | 0h 34m |
| Altitude | 23000 |
| Route | ULQ1K ULQ W1 TOLIM TOLIM5W |
| Aircraft | B738/M-SDE2E3FGHIRWXY/LB1 |
Departure
| Time | 2026-04-24 23:26 |
|---|---|
| Airport | Alfonso Bonilla Aragon International Airport (SKCL) |
Arrival
| Time | 2026-04-25 00:01 |
|---|---|
| Airport | El Dorado International Airport (SKBO) |
| Time | Latitude | Longitude | Altitude | Speed | Heading |
|---|---|---|---|---|---|
| 2026-04-24 23:03 | 3.53737 | -76.38635 | 3161 ft | 0 kts | 190° |
| 2026-04-24 23:16 | 3.53740 | -76.38634 | 3161 ft | 3 kts | 190° |
| 2026-04-24 23:16 | 3.53767 | -76.38630 | 3164 ft | 4 kts | 190° |
| 2026-04-24 23:16 | 3.53794 | -76.38625 | 3162 ft | 4 kts | 190° |
| 2026-04-24 23:16 | 3.53798 | -76.38624 | 3162 ft | 1 kts | 190° |
| 2026-04-24 23:19 | 3.53795 | -76.38621 | 3162 ft | 1 kts | 144° |
| 2026-04-24 23:19 | 3.53791 | -76.38613 | 3164 ft | 3 kts | 122° |
| 2026-04-24 23:19 | 3.53783 | -76.38597 | 3161 ft | 5 kts | 117° |
| 2026-04-24 23:20 | 3.53753 | -76.38557 | 3161 ft | 9 kts | 142° |
| 2026-04-24 23:20 | 3.53739 | -76.38547 | 3161 ft | 1 kts | 144° |
| 2026-04-24 23:20 | 3.53732 | -76.38542 | 3161 ft | 1 kts | 144° |
| 2026-04-24 23:20 | 3.53715 | -76.38529 | 3162 ft | 9 kts | 143° |
| 2026-04-24 23:21 | 3.53642 | -76.38475 | 3161 ft | 14 kts | 143° |
| 2026-04-24 23:21 | 3.53550 | -76.38464 | 3161 ft | 14 kts | 189° |
| 2026-04-24 23:21 | 3.53460 | -76.38480 | 3163 ft | 13 kts | 190° |
| 2026-04-24 23:21 | 3.53372 | -76.38496 | 3161 ft | 13 kts | 190° |
| 2026-04-24 23:22 | 3.53287 | -76.38511 | 3161 ft | 12 kts | 190° |
| 2026-04-24 23:22 | 3.53203 | -76.38525 | 3161 ft | 12 kts | 189° |
| 2026-04-24 23:22 | 3.53126 | -76.38537 | 3163 ft | 8 kts | 189° |
| 2026-04-24 23:22 | 3.53073 | -76.38546 | 3161 ft | 8 kts | 189° |
| 2026-04-24 23:23 | 3.53021 | -76.38551 | 3161 ft | 7 kts | 169° |
| 2026-04-24 23:23 | 3.52998 | -76.38522 | 3161 ft | 0 kts | 104° |
| 2026-04-24 23:23 | 3.52996 | -76.38518 | 3161 ft | 1 kts | 104° |
| 2026-04-24 23:23 | 3.52993 | -76.38505 | 3161 ft | 3 kts | 104° |
| 2026-04-24 23:24 | 3.52988 | -76.38460 | 3160 ft | 11 kts | 91° |
| 2026-04-24 23:24 | 3.53034 | -76.38389 | 3159 ft | 12 kts | 10° |
| 2026-04-24 23:24 | 3.53043 | -76.38388 | 3159 ft | 0 kts | 9° |
| 2026-04-24 23:25 | 3.53068 | -76.38384 | 3160 ft | 23 kts | 9° |
| 2026-04-24 23:26 | 3.53497 | -76.38310 | 3161 ft | 99 kts | 9° |
| 2026-04-24 23:26 | 3.54399 | -76.38155 | 3165 ft | 163 kts | 9° |
| 2026-04-24 23:26 | 3.55623 | -76.37954 | 3663 ft | 183 kts | 7° |
| 2026-04-24 23:26 | 3.56885 | -76.37761 | 4625 ft | 183 kts | 7° |
| 2026-04-24 23:27 | 3.58185 | -76.37536 | 5224 ft | 201 kts | 10° |
| 2026-04-24 23:27 | 3.59620 | -76.37276 | 5582 ft | 216 kts | 10° |
| 2026-04-24 23:27 | 3.61114 | -76.37005 | 6100 ft | 220 kts | 10° |
| 2026-04-24 23:27 | 3.62640 | -76.36731 | 6613 ft | 225 kts | 10° |
| 2026-04-24 23:28 | 3.64190 | -76.36442 | 7156 ft | 229 kts | 13° |
| 2026-04-24 23:28 | 3.65804 | -76.35992 | 7359 ft | 252 kts | 17° |
| 2026-04-24 23:28 | 3.67532 | -76.35439 | 7660 ft | 272 kts | 18° |
| 2026-04-24 23:28 | 3.69370 | -76.34842 | 8095 ft | 286 kts | 18° |
| 2026-04-24 23:29 | 3.71283 | -76.34224 | 8791 ft | 292 kts | 17° |
| 2026-04-24 23:29 | 3.73242 | -76.33598 | 9519 ft | 296 kts | 17° |
| 2026-04-24 23:29 | 3.75175 | -76.32983 | 10224 ft | 300 kts | 17° |
| 2026-04-24 23:29 | 3.77234 | -76.32333 | 10533 ft | 321 kts | 17° |
| 2026-04-24 23:30 | 3.79439 | -76.31639 | 10714 ft | 343 kts | 17° |
| 2026-04-24 23:30 | 3.81783 | -76.30903 | 10909 ft | 362 kts | 17° |
| 2026-04-24 23:30 | 3.84217 | -76.30139 | 11374 ft | 370 kts | 17° |
| 2026-04-24 23:30 | 3.86682 | -76.29365 | 11991 ft | 373 kts | 17° |
| 2026-04-24 23:31 | 3.89170 | -76.28584 | 12623 ft | 376 kts | 16° |
| 2026-04-24 23:31 | 3.91679 | -76.27797 | 13237 ft | 379 kts | 16° |
| 2026-04-24 23:31 | 3.94177 | -76.27014 | 13815 ft | 383 kts | 16° |
| 2026-04-24 23:31 | 3.96735 | -76.26211 | 14336 ft | 386 kts | 16° |
| 2026-04-24 23:32 | 3.99308 | -76.25404 | 14872 ft | 389 kts | 16° |
| 2026-04-24 23:32 | 4.01901 | -76.24591 | 15380 ft | 392 kts | 16° |
| 2026-04-24 23:32 | 4.04511 | -76.23772 | 15883 ft | 395 kts | 16° |
| 2026-04-24 23:32 | 4.07101 | -76.22807 | 16358 ft | 400 kts | 28° |
| 2026-04-24 23:33 | 4.09259 | -76.21036 | 16901 ft | 405 kts | 49° |
| 2026-04-24 23:33 | 4.10742 | -76.18640 | 17403 ft | 409 kts | 67° |
| 2026-04-24 23:33 | 4.11769 | -76.15973 | 17902 ft | 411 kts | 69° |
| 2026-04-24 23:33 | 4.12774 | -76.13274 | 18346 ft | 415 kts | 69° |
| 2026-04-24 23:34 | 4.13790 | -76.10553 | 18762 ft | 417 kts | 68° |
| 2026-04-24 23:34 | 4.14811 | -76.07852 | 19091 ft | 420 kts | 68° |
| 2026-04-24 23:34 | 4.15854 | -76.05127 | 19673 ft | 419 kts | 68° |
| 2026-04-24 23:34 | 4.16911 | -76.02385 | 19989 ft | 424 kts | 68° |
| 2026-04-24 23:35 | 4.17975 | -75.99634 | 20479 ft | 423 kts | 68° |
| 2026-04-24 23:35 | 4.19043 | -75.96876 | 20823 ft | 427 kts | 68° |
| 2026-04-24 23:35 | 4.20120 | -75.94098 | 21218 ft | 428 kts | 67° |
| 2026-04-24 23:35 | 4.21196 | -75.91319 | 21690 ft | 429 kts | 68° |
| 2026-04-24 23:36 | 4.22288 | -75.88524 | 22025 ft | 431 kts | 68° |
| 2026-04-24 23:36 | 4.23391 | -75.85729 | 22371 ft | 433 kts | 67° |
| 2026-04-24 23:36 | 4.24505 | -75.82915 | 22705 ft | 435 kts | 67° |
| 2026-04-24 23:36 | 4.25620 | -75.80094 | 23036 ft | 434 kts | 67° |
| 2026-04-24 23:37 | 4.26734 | -75.77276 | 23053 ft | 437 kts | 68° |
| 2026-04-24 23:37 | 4.27853 | -75.74440 | 23056 ft | 437 kts | 68° |
| 2026-04-24 23:37 | 4.30080 | -75.68792 | 23065 ft | 436 kts | 68° |
| 2026-04-24 23:38 | 4.31194 | -75.65967 | 23063 ft | 436 kts | 68° |
| 2026-04-24 23:38 | 4.32294 | -75.63174 | 23084 ft | 436 kts | 68° |
| 2026-04-24 23:38 | 4.33423 | -75.60309 | 23082 ft | 436 kts | 68° |
| 2026-04-24 23:38 | 4.34535 | -75.57486 | 23104 ft | 435 kts | 68° |
| 2026-04-24 23:39 | 4.35643 | -75.54671 | 23107 ft | 436 kts | 68° |
| 2026-04-24 23:39 | 4.36757 | -75.51844 | 23119 ft | 436 kts | 68° |
| 2026-04-24 23:39 | 4.37886 | -75.49035 | 23119 ft | 436 kts | 65° |
| 2026-04-24 23:39 | 4.39222 | -75.46348 | 23132 ft | 435 kts | 60° |
| 2026-04-24 23:40 | 4.40712 | -75.43703 | 22887 ft | 436 kts | 59° |
| 2026-04-24 23:40 | 4.42238 | -75.41092 | 22645 ft | 433 kts | 59° |
| 2026-04-24 23:40 | 4.43760 | -75.38479 | 22423 ft | 435 kts | 59° |
| 2026-04-24 23:40 | 4.45264 | -75.35857 | 22178 ft | 433 kts | 59° |
| 2026-04-24 23:41 | 4.46729 | -75.33261 | 21904 ft | 422 kts | 60° |
| 2026-04-24 23:41 | 4.48150 | -75.30718 | 21664 ft | 412 kts | 60° |
| 2026-04-24 23:41 | 4.49523 | -75.28245 | 21420 ft | 402 kts | 60° |
| 2026-04-24 23:41 | 4.50865 | -75.25823 | 21188 ft | 393 kts | 60° |
| 2026-04-24 23:42 | 4.52178 | -75.23453 | 20949 ft | 385 kts | 60° |
| 2026-04-24 23:42 | 4.53467 | -75.21129 | 20708 ft | 379 kts | 60° |
| 2026-04-24 23:42 | 4.54745 | -75.18825 | 20425 ft | 376 kts | 60° |
| 2026-04-24 23:42 | 4.56013 | -75.16539 | 20148 ft | 374 kts | 60° |
| 2026-04-24 23:43 | 4.57276 | -75.14262 | 19885 ft | 372 kts | 60° |
| 2026-04-24 23:43 | 4.58533 | -75.11996 | 19615 ft | 371 kts | 60° |
| 2026-04-24 23:43 | 4.59768 | -75.09771 | 19366 ft | 370 kts | 60° |
| 2026-04-24 23:43 | 4.61017 | -75.07518 | 19120 ft | 370 kts | 60° |
| 2026-04-24 23:44 | 4.62276 | -75.05253 | 18862 ft | 373 kts | 60° |
| 2026-04-24 23:44 | 4.63536 | -75.02984 | 18610 ft | 372 kts | 59° |
| 2026-04-24 23:44 | 4.64794 | -75.00721 | 18352 ft | 370 kts | 59° |
| 2026-04-24 23:44 | 4.66042 | -74.98472 | 18107 ft | 367 kts | 60° |
| 2026-04-24 23:45 | 4.67281 | -74.96242 | 17804 ft | 364 kts | 59° |
| 2026-04-24 23:45 | 4.68507 | -74.94034 | 17506 ft | 363 kts | 59° |
| 2026-04-24 23:45 | 4.69731 | -74.91827 | 17212 ft | 361 kts | 59° |
| 2026-04-24 23:45 | 4.70951 | -74.89629 | 16932 ft | 359 kts | 59° |
| 2026-04-24 23:46 | 4.72117 | -74.87413 | 16887 ft | 360 kts | 64° |
| 2026-04-24 23:46 | 4.73136 | -74.85100 | 16632 ft | 362 kts | 66° |
| 2026-04-24 23:46 | 4.74086 | -74.82776 | 16389 ft | 359 kts | 67° |
| 2026-04-24 23:46 | 4.75015 | -74.80470 | 16146 ft | 356 kts | 67° |
| 2026-04-24 23:47 | 4.75699 | -74.78786 | 15974 ft | 354 kts | 66° |
| 2026-04-24 23:47 | 4.76632 | -74.76509 | 15715 ft | 352 kts | 66° |
| 2026-04-24 23:47 | 4.77568 | -74.74250 | 15521 ft | 347 kts | 66° |
| 2026-04-24 23:47 | 4.78480 | -74.72060 | 15395 ft | 334 kts | 66° |
| 2026-04-24 23:48 | 4.79363 | -74.69951 | 15155 ft | 330 kts | 66° |
| 2026-04-24 23:48 | 4.80252 | -74.67829 | 14895 ft | 328 kts | 66° |
| 2026-04-24 23:48 | 4.81134 | -74.65730 | 14878 ft | 331 kts | 66° |
| 2026-04-24 23:48 | 4.82035 | -74.63586 | 14871 ft | 332 kts | 66° |
| 2026-04-24 23:49 | 4.82915 | -74.61493 | 14855 ft | 318 kts | 66° |
| 2026-04-24 23:49 | 4.83769 | -74.59459 | 14868 ft | 317 kts | 66° |
| 2026-04-24 23:49 | 4.84628 | -74.57414 | 14860 ft | 316 kts | 66° |
| 2026-04-24 23:49 | 4.85477 | -74.55393 | 14870 ft | 314 kts | 66° |
| 2026-04-24 23:50 | 4.86323 | -74.53376 | 14870 ft | 313 kts | 66° |
| 2026-04-24 23:50 | 4.87168 | -74.51362 | 14877 ft | 312 kts | 66° |
| 2026-04-24 23:50 | 4.88009 | -74.49359 | 14916 ft | 312 kts | 66° |
| 2026-04-24 23:50 | 4.88850 | -74.47357 | 14906 ft | 312 kts | 66° |
| 2026-04-24 23:51 | 4.89655 | -74.45368 | 14914 ft | 312 kts | 73° |
| 2026-04-24 23:51 | 4.89825 | -74.43189 | 14921 ft | 311 kts | 101° |
| 2026-04-24 23:51 | 4.89072 | -74.41218 | 14916 ft | 306 kts | 126° |
| 2026-04-24 23:51 | 4.87639 | -74.39688 | 14872 ft | 300 kts | 146° |
| 2026-04-24 23:52 | 4.85830 | -74.38641 | 14586 ft | 299 kts | 154° |
| 2026-04-24 23:52 | 4.83969 | -74.37725 | 14306 ft | 298 kts | 155° |
| 2026-04-24 23:52 | 4.82107 | -74.36800 | 14018 ft | 298 kts | 155° |
| 2026-04-24 23:52 | 4.80278 | -74.35871 | 13882 ft | 290 kts | 154° |
| 2026-04-24 23:53 | 4.78498 | -74.34957 | 13757 ft | 283 kts | 153° |
| 2026-04-24 23:53 | 4.76783 | -74.34055 | 13692 ft | 274 kts | 151° |
| 2026-04-24 23:53 | 4.75146 | -74.33081 | 13690 ft | 273 kts | 149° |
| 2026-04-24 23:53 | 4.73517 | -74.32086 | 13712 ft | 276 kts | 149° |
| 2026-04-24 23:54 | 4.71876 | -74.31089 | 13701 ft | 276 kts | 150° |
| 2026-04-24 23:54 | 4.70228 | -74.30094 | 13691 ft | 276 kts | 150° |
| 2026-04-24 23:54 | 4.68599 | -74.29113 | 13686 ft | 270 kts | 149° |
| 2026-04-24 23:54 | 4.67138 | -74.28013 | 13687 ft | 256 kts | 137° |
| 2026-04-24 23:55 | 4.65884 | -74.26809 | 13689 ft | 242 kts | 137° |
| 2026-04-24 23:55 | 4.64731 | -74.25730 | 13711 ft | 234 kts | 138° |
| 2026-04-24 23:55 | 4.63550 | -74.24638 | 13695 ft | 233 kts | 138° |
| 2026-04-24 23:55 | 4.62469 | -74.23382 | 13453 ft | 240 kts | 123° |
| 2026-04-24 23:56 | 4.61564 | -74.21978 | 13162 ft | 240 kts | 124° |
| 2026-04-24 23:56 | 4.60635 | -74.20592 | 12837 ft | 237 kts | 124° |
| 2026-04-24 23:56 | 4.59726 | -74.19258 | 12522 ft | 233 kts | 125° |
| 2026-04-24 23:56 | 4.58808 | -74.17921 | 12228 ft | 228 kts | 126° |
| 2026-04-24 23:57 | 4.57979 | -74.16585 | 11914 ft | 224 kts | 114° |
| 2026-04-24 23:57 | 4.57543 | -74.15117 | 11652 ft | 216 kts | 96° |
| 2026-04-24 23:57 | 4.57571 | -74.13647 | 11394 ft | 207 kts | 78° |
| 2026-04-24 23:57 | 4.58000 | -74.12332 | 11145 ft | 192 kts | 62° |
| 2026-04-24 23:58 | 4.58696 | -74.11229 | 10893 ft | 188 kts | 49° |
| 2026-04-24 23:58 | 4.59606 | -74.10344 | 10658 ft | 182 kts | 35° |
| 2026-04-24 23:58 | 4.60708 | -74.09697 | 10194 ft | 189 kts | 21° |
| 2026-04-24 23:58 | 4.61915 | -74.09315 | 9939 ft | 176 kts | 14° |
| 2026-04-24 23:59 | 4.63086 | -74.08999 | 9769 ft | 174 kts | 14° |
| 2026-04-24 23:59 | 4.64273 | -74.08698 | 9592 ft | 177 kts | 11° |
| 2026-04-24 23:59 | 4.65488 | -74.08667 | 9419 ft | 175 kts | 346° |
| 2026-04-24 23:59 | 4.66615 | -74.09108 | 9261 ft | 176 kts | 328° |
| 2026-04-25 00:00 | 4.67466 | -74.09974 | 9050 ft | 180 kts | 302° |
| 2026-04-25 00:00 | 4.68174 | -74.11017 | 8856 ft | 183 kts | 306° |
| 2026-04-25 00:00 | 4.68957 | -74.12053 | 8520 ft | 184 kts | 305° |
| 2026-04-25 00:00 | 4.69691 | -74.13030 | 8366 ft | 164 kts | 306° |
| 2026-04-25 00:01 | 4.70193 | -74.13691 | 8364 ft | 68 kts | 307° |
| 2026-04-25 00:01 | 4.70265 | -74.13866 | 8364 ft | 16 kts | 228° |
| 2026-04-25 00:01 | 4.70208 | -74.13912 | 8364 ft | 0 kts | 215° |
| 2026-04-25 00:03 | 4.70202 | -74.13916 | 8364 ft | 4 kts | 215° |
| 2026-04-25 00:03 | 4.70159 | -74.13947 | 8364 ft | 11 kts | 215° |
| 2026-04-25 00:03 | 4.70108 | -74.13984 | 8365 ft | 15 kts | 218° |
| 2026-04-25 00:03 | 4.70020 | -74.14017 | 8365 ft | 17 kts | 151° |
| 2026-04-25 00:04 | 4.69957 | -74.13938 | 8365 ft | 14 kts | 122° |
| 2026-04-25 00:04 | 4.69920 | -74.13887 | 8365 ft | 3 kts | 129° |
| 2026-04-25 00:04 | 4.69905 | -74.13869 | 8365 ft | 3 kts | 129° |
| 2026-04-25 00:04 | 4.69882 | -74.13840 | 8365 ft | 5 kts | 129° |
| 2026-04-25 00:05 | 4.69866 | -74.13821 | 8365 ft | 5 kts | 129° |
| 2026-04-25 00:05 | 4.69843 | -74.13793 | 8365 ft | 5 kts | 130° |
| 2026-04-25 00:05 | 4.69812 | -74.13794 | 8365 ft | 5 kts | 216° |
| 2026-04-25 00:05 | 4.69784 | -74.13818 | 8365 ft | 5 kts | 217° |
| 2026-04-25 00:06 | 4.69764 | -74.13833 | 8365 ft | 0 kts | 216° |